Edsbyn, Sweden
Current Conditions -  °F | °C
As of 1:50 AM on Thursday 23 Oct 2014 (Local Time) from ESSD Reporting Station
Overcast Overcast  
Wind Chill: 26°   Ceiling: 3400
Heat Index: 34°   Visibility: 6mi
Dew Point: 32°   Wind: 9mph
Humidity: 93%   Direction: 110°ESE
Pressure: 30.21"   Gusts: NA
Location:  61.38°N, 15.82°E
Report Text: ESSD 222350Z AUTO 11008KT 9999 OVC034/// 01/M00 Q1023
Loading
Personal Weather Stations






























Interactive Weather Map
Tropical Storm Tracking
New forecast layout! Learn more

10-Day Weather Forecast

Advertisements
Track Severe Weather on mobile